• Join FlightAware (Why Join?)
  • Login
  • US Flag 
04:00PM EST


 

Airport Tracker/Info


-or-


 

Live Flight TrackerFlight Track Log ✈ EGF4269 ✈ 28-Apr-2013 ✈ KORD - KAZO

Flight Track Log - Related Links

Times and Time Zones

All times are in EDT time to prevent confusion due to time zone crossing. See the EGF4269 flight status page for this flight to view local times or setup timezone preferences in your user account.

Time Position Orientation Groundspeed Altitude Reporting Facility
EDT Latitude Longitude Course Direction KTS MPH feet Rate Location/Type
10:37PM 41.9833 -87.8333 77° East 196 226 2,400  Level Chicago TRACON
10:38PM 42.0000 -87.7500 75° East 246 283 4,700 2,280 Climbing Chicago TRACON
10:39PM 42.0361 -87.5197 83° East  Level FlightAware Approximate
10:40PM 42.0481 -87.3876 83° East  Level FlightAware Approximate
10:40PM 42.0311 -87.5997 74° East 267 307 8,500  Level Chicago Center
10:41PM 42.0669 -87.2571 78° East  Level FlightAware Approximate
10:41PM 42.0472 -87.4922 79° East 286 329 10,700  Level Chicago Center
10:42PM 42.0872 -87.1268 77° East  Level FlightAware Approximate
10:42PM 42.0656 -87.3756 78° East 309 356 12,300  Level Chicago Center
10:43PM 42.0839 -87.2497 79° East 334 384 13,900 1,560 Climbing Chicago Center
10:44PM 42.1078 -87.0928 78° East 353 406 15,500 1,500 Climbing Chicago Center
10:45PM 42.1181 -86.9531 84° East 371 427 17,000 780 Climbing Chicago Center
10:46PM 42.1206 -86.8047 89° East 391 450 17,100  Climbing Chicago Center
10:47PM 42.1272 -86.6397 87° East 414 476 17,100  Level Chicago Center
10:48PM 42.1325 -86.4853 87° East 414 476 17,100 -780 Level Chicago Center
10:49PM 42.1378 -86.3322 87° East 410 472 15,600 -1,920 Descending Chicago Center
10:50PM 42.1428 -86.1864 87° East 394 453 13,200 -2,220 Descending Chicago Center
10:51PM 42.1536 -86.0533 84° East 362 417 11,200 -1,380 Descending Chicago Center
10:52PM 42.1725 -85.9408 77° East 340 391 10,500 -1,680 Descending Chicago Center
10:53PM 42.1911 -85.8272 77° East 297 342 7,900 -2,760 Descending Chicago Center
10:54PM 42.1903 -85.7286 91° East 280 322 4,900 -2,460 Descending Chicago Center
10:55PM 42.1636 -85.6411 112° Southeast 256 295 2,900 -1,200 Descending Chicago Center
10:56PM 42.1494 -85.5686 105° East 212 244 2,500 -540 Descending Chicago Center
10:57PM 42.1797 -85.5375 37° Northeast 168 193 1,900 -600 Descending Chicago Center